sensor_id;sensor_type;location;lat;lon;timestamp;temperature;humidity
827;DHT22;395;48.132;11.608;2023-03-12T00:00:02;4.70;1.00
827;DHT22;395;48.132;11.608;2023-03-12T00:02:29;4.70;1.00
827;DHT22;395;48.132;11.608;2023-03-12T00:04:55;4.80;1.00
827;DHT22;395;48.132;11.608;2023-03-12T00:07:20;4.80;1.00
827;DHT22;395;48.132;11.608;2023-03-12T00:09:46;4.70;1.00
827;DHT22;395;48.132;11.608;2023-03-12T00:12:12;4.70;1.00
827;DHT22;395;48.132;11.608;2023-03-12T00:14:38;4.60;1.00
827;DHT22;395;48.132;11.608;2023-03-12T00:17:03;4.70;1.00
827;DHT22;395;48.132;11.608;2023-03-12T00:19:29;4.60;1.00
827;DHT22;395;48.132;11.608;2023-03-12T00:21:55;4.70;1.00
827;DHT22;395;48.132;11.608;2023-03-12T00:24:22;4.60;1.00
827;DHT22;395;48.132;11.608;2023-03-12T00:26:47;4.60;1.00
827;DHT22;395;48.132;11.608;2023-03-12T00:29:13;4.60;1.00
827;DHT22;395;48.132;11.608;2023-03-12T00:31:39;4.60;1.00
827;DHT22;395;48.132;11.608;2023-03-12T00:34:04;4.60;1.00
827;DHT22;395;48.132;11.608;2023-03-12T00:36:31;4.60;1.00
827;DHT22;395;48.132;11.608;2023-03-12T00:38:59;4.60;1.00
827;DHT22;395;48.132;11.608;2023-03-12T00:41:25;4.60;1.00
827;DHT22;395;48.132;11.608;2023-03-12T00:43:51;4.60;1.00
827;DHT22;395;48.132;11.608;2023-03-12T00:46:18;4.60;1.00
827;DHT22;395;48.132;11.608;2023-03-12T00:48:44;4.50;1.00
827;DHT22;395;48.132;11.608;2023-03-12T00:51:10;4.50;1.00
827;DHT22;395;48.132;11.608;2023-03-12T00:53:36;4.50;1.00
827;DHT22;395;48.132;11.608;2023-03-12T00:56:03;4.60;1.00
827;DHT22;395;48.132;11.608;2023-03-12T00:58:28;4.50;1.00
827;DHT22;395;48.132;11.608;2023-03-12T01:00:54;4.60;1.00
827;DHT22;395;48.132;11.608;2023-03-12T01:03:20;4.50;1.00
827;DHT22;395;48.132;11.608;2023-03-12T01:05:45;4.50;1.00
827;DHT22;395;48.132;11.608;2023-03-12T01:08:11;4.50;1.00
827;DHT22;395;48.132;11.608;2023-03-12T01:10:41;4.50;1.00
827;DHT22;395;48.132;11.608;2023-03-12T01:13:07;4.50;1.00
827;DHT22;395;48.132;11.608;2023-03-12T01:15:33;4.40;1.00
827;DHT22;395;48.132;11.608;2023-03-12T01:17:59;4.40;1.00
827;DHT22;395;48.132;11.608;2023-03-12T01:20:25;4.40;1.00
827;DHT22;395;48.132;11.608;2023-03-12T01:22:50;4.40;1.00
827;DHT22;395;48.132;11.608;2023-03-12T01:25:16;4.40;1.00
827;DHT22;395;48.132;11.608;2023-03-12T01:27:42;4.30;1.00
827;DHT22;395;48.132;11.608;2023-03-12T01:30:08;4.40;1.00
827;DHT22;395;48.132;11.608;2023-03-12T01:32:34;4.40;1.00
827;DHT22;395;48.132;11.608;2023-03-12T01:35:00;4.40;1.00
827;DHT22;395;48.132;11.608;2023-03-12T01:37:26;4.40;1.00
827;DHT22;395;48.132;11.608;2023-03-12T01:39:52;4.40;1.00
827;DHT22;395;48.132;11.608;2023-03-12T01:42:17;4.50;1.00
827;DHT22;395;48.132;11.608;2023-03-12T01:44:58;4.60;1.00
827;DHT22;395;48.132;11.608;2023-03-12T01:47:25;4.50;1.00
827;DHT22;395;48.132;11.608;2023-03-12T01:49:53;4.50;1.00
827;DHT22;395;48.132;11.608;2023-03-12T01:55:12;4.60;1.00
827;DHT22;395;48.132;11.608;2023-03-12T01:57:47;4.60;1.00
827;DHT22;395;48.132;11.608;2023-03-12T02:00:17;4.60;1.00
827;DHT22;395;48.132;11.608;2023-03-12T02:02:44;4.70;1.00
827;DHT22;395;48.132;11.608;2023-03-12T02:07:48;4.70;1.00
827;DHT22;395;48.132;11.608;2023-03-12T02:10:15;4.70;1.00
827;DHT22;395;48.132;11.608;2023-03-12T02:12:40;4.70;1.00
827;DHT22;395;48.132;11.608;2023-03-12T02:15:07;4.80;1.00
827;DHT22;395;48.132;11.608;2023-03-12T02:17:33;4.80;1.00
827;DHT22;395;48.132;11.608;2023-03-12T02:22:56;4.90;1.00
827;DHT22;395;48.132;11.608;2023-03-12T02:25:40;4.90;1.00
827;DHT22;395;48.132;11.608;2023-03-12T02:28:09;4.90;1.00
827;DHT22;395;48.132;11.608;2023-03-12T02:30:38;4.90;1.00
827;DHT22;395;48.132;11.608;2023-03-12T02:33:06;4.90;1.00
827;DHT22;395;48.132;11.608;2023-03-12T02:35:32;4.90;1.00
827;DHT22;395;48.132;11.608;2023-03-12T02:37:58;4.80;1.00
827;DHT22;395;48.132;11.608;2023-03-12T02:40:36;4.80;1.00
827;DHT22;395;48.132;11.608;2023-03-12T02:43:05;4.80;1.00
827;DHT22;395;48.132;11.608;2023-03-12T02:45:33;4.80;1.00
827;DHT22;395;48.132;11.608;2023-03-12T02:48:01;4.80;1.00
827;DHT22;395;48.132;11.608;2023-03-12T02:50:27;4.70;1.00
827;DHT22;395;48.132;11.608;2023-03-12T02:52:53;4.80;1.00
827;DHT22;395;48.132;11.608;2023-03-12T02:55:19;4.70;1.00
827;DHT22;395;48.132;11.608;2023-03-12T02:57:44;4.70;1.00
827;DHT22;395;48.132;11.608;2023-03-12T03:00:12;4.70;1.00
827;DHT22;395;48.132;11.608;2023-03-12T03:02:39;4.70;1.00
827;DHT22;395;48.132;11.608;2023-03-12T03:05:05;4.60;1.00
827;DHT22;395;48.132;11.608;2023-03-12T03:07:30;4.60;1.00
827;DHT22;395;48.132;11.608;2023-03-12T03:09:56;4.60;1.00
827;DHT22;395;48.132;11.608;2023-03-12T03:12:32;4.60;1.00
827;DHT22;395;48.132;11.608;2023-03-12T03:14:58;4.60;1.00
827;DHT22;395;48.132;11.608;2023-03-12T03:17:24;4.60;1.00
827;DHT22;395;48.132;11.608;2023-03-12T03:19:50;4.60;1.00
827;DHT22;395;48.132;11.608;2023-03-12T03:22:16;4.60;1.00
827;DHT22;395;48.132;11.608;2023-03-12T03:24:42;4.60;1.00
827;DHT22;395;48.132;11.608;2023-03-12T03:27:08;4.70;1.00
827;DHT22;395;48.132;11.608;2023-03-12T03:29:34;4.60;1.00
827;DHT22;395;48.132;11.608;2023-03-12T03:31:59;4.60;1.00
827;DHT22;395;48.132;11.608;2023-03-12T03:34:25;4.60;1.00
827;DHT22;395;48.132;11.608;2023-03-12T03:36:50;4.70;1.00
827;DHT22;395;48.132;11.608;2023-03-12T03:39:16;4.70;1.00
827;DHT22;395;48.132;11.608;2023-03-12T03:41:42;4.70;1.00
827;DHT22;395;48.132;11.608;2023-03-12T03:44:10;4.70;1.00
827;DHT22;395;48.132;11.608;2023-03-12T03:46:35;4.70;1.00
827;DHT22;395;48.132;11.608;2023-03-12T03:49:01;4.70;1.00
827;DHT22;395;48.132;11.608;2023-03-12T03:51:27;4.70;1.00
827;DHT22;395;48.132;11.608;2023-03-12T03:53:53;4.70;1.00
827;DHT22;395;48.132;11.608;2023-03-12T03:56:18;4.70;1.00
827;DHT22;395;48.132;11.608;2023-03-12T03:58:44;4.70;1.00
827;DHT22;395;48.132;11.608;2023-03-12T04:01:13;4.80;1.00
827;DHT22;395;48.132;11.608;2023-03-12T04:03:38;4.80;1.00
827;DHT22;395;48.132;11.608;2023-03-12T04:06:05;4.80;1.00
827;DHT22;395;48.132;11.608;2023-03-12T04:08:33;4.80;1.00
827;DHT22;395;48.132;11.608;2023-03-12T04:11:09;4.90;1.00
827;DHT22;395;48.132;11.608;2023-03-12T04:13:35;4.90;1.00
827;DHT22;395;48.132;11.608;2023-03-12T04:16:01;4.90;1.00
827;DHT22;395;48.132;11.608;2023-03-12T04:18:26;4.90;1.00
827;DHT22;395;48.132;11.608;2023-03-12T04:20:53;5.00;1.00
827;DHT22;395;48.132;11.608;2023-03-12T04:23:18;5.00;1.00
827;DHT22;395;48.132;11.608;2023-03-12T04:25:44;5.00;1.00
827;DHT22;395;48.132;11.608;2023-03-12T04:28:09;5.00;1.00
827;DHT22;395;48.132;11.608;2023-03-12T04:30:35;5.00;1.00
827;DHT22;395;48.132;11.608;2023-03-12T04:33:03;5.00;1.00
827;DHT22;395;48.132;11.608;2023-03-12T04:35:29;5.00;1.00
827;DHT22;395;48.132;11.608;2023-03-12T04:37:55;5.00;1.00
827;DHT22;395;48.132;11.608;2023-03-12T04:40:21;5.00;1.00
827;DHT22;395;48.132;11.608;2023-03-12T04:42:47;5.10;1.00
827;DHT22;395;48.132;11.608;2023-03-12T04:45:13;5.10;1.00
827;DHT22;395;48.132;11.608;2023-03-12T04:47:39;5.10;1.00
827;DHT22;395;48.132;11.608;2023-03-12T04:50:05;5.20;1.00
827;DHT22;395;48.132;11.608;2023-03-12T04:52:31;5.20;1.00
827;DHT22;395;48.132;11.608;2023-03-12T04:54:57;5.20;1.00
827;DHT22;395;48.132;11.608;2023-03-12T04:57:24;5.30;1.00
827;DHT22;395;48.132;11.608;2023-03-12T04:59:49;5.20;1.00
827;DHT22;395;48.132;11.608;2023-03-12T05:02:15;5.20;1.00
827;DHT22;395;48.132;11.608;2023-03-12T05:04:41;5.20;1.00
827;DHT22;395;48.132;11.608;2023-03-12T05:07:07;5.30;1.00
827;DHT22;395;48.132;11.608;2023-03-12T05:09:33;5.30;1.00
827;DHT22;395;48.132;11.608;2023-03-12T05:11:58;5.30;1.00
827;DHT22;395;48.132;11.608;2023-03-12T05:14:25;5.40;1.00
827;DHT22;395;48.132;11.608;2023-03-12T05:16:50;5.40;1.00
827;DHT22;395;48.132;11.608;2023-03-12T05:19:16;5.40;1.00
827;DHT22;395;48.132;11.608;2023-03-12T05:21:41;5.40;1.00
827;DHT22;395;48.132;11.608;2023-03-12T05:24:08;5.40;1.00
827;DHT22;395;48.132;11.608;2023-03-12T05:26:34;5.40;1.00
827;DHT22;395;48.132;11.608;2023-03-12T05:29:00;5.40;1.00
827;DHT22;395;48.132;11.608;2023-03-12T05:31:27;5.40;1.00
827;DHT22;395;48.132;11.608;2023-03-12T05:33:58;5.40;1.00
827;DHT22;395;48.132;11.608;2023-03-12T05:36:24;5.40;1.00
827;DHT22;395;48.132;11.608;2023-03-12T05:38:50;5.40;1.00
827;DHT22;395;48.132;11.608;2023-03-12T05:41:22;5.40;1.00
827;DHT22;395;48.132;11.608;2023-03-12T05:43:48;5.30;1.00
827;DHT22;395;48.132;11.608;2023-03-12T05:46:13;5.30;1.00
827;DHT22;395;48.132;11.608;2023-03-12T05:48:40;5.30;1.00
827;DHT22;395;48.132;11.608;2023-03-12T05:51:05;5.30;1.00
827;DHT22;395;48.132;11.608;2023-03-12T05:53:31;5.30;1.00
827;DHT22;395;48.132;11.608;2023-03-12T05:56:05;5.40;1.00
827;DHT22;395;48.132;11.608;2023-03-12T05:58:32;5.40;1.00
827;DHT22;395;48.132;11.608;2023-03-12T06:00:59;5.40;1.00
827;DHT22;395;48.132;11.608;2023-03-12T06:03:24;5.40;1.00
827;DHT22;395;48.132;11.608;2023-03-12T06:05:50;5.40;1.00
827;DHT22;395;48.132;11.608;2023-03-12T06:08:20;5.40;1.00
827;DHT22;395;48.132;11.608;2023-03-12T06:10:46;5.40;1.00
827;DHT22;395;48.132;11.608;2023-03-12T06:13:11;5.40;1.00
827;DHT22;395;48.132;11.608;2023-03-12T06:15:37;5.50;1.00
827;DHT22;395;48.132;11.608;2023-03-12T06:18:03;5.50;1.00
827;DHT22;395;48.132;11.608;2023-03-12T06:20:28;5.50;1.00
827;DHT22;395;48.132;11.608;2023-03-12T06:22:54;5.50;1.00
827;DHT22;395;48.132;11.608;2023-03-12T06:25:20;5.60;1.00
827;DHT22;395;48.132;11.608;2023-03-12T06:27:45;5.60;1.00
827;DHT22;395;48.132;11.608;2023-03-12T06:30:12;5.60;1.00
827;DHT22;395;48.132;11.608;2023-03-12T06:32:37;5.60;1.00
827;DHT22;395;48.132;11.608;2023-03-12T06:35:03;5.60;1.00
827;DHT22;395;48.132;11.608;2023-03-12T06:37:30;5.60;1.00
827;DHT22;395;48.132;11.608;2023-03-12T06:39:56;5.60;1.00
827;DHT22;395;48.132;11.608;2023-03-12T06:42:21;5.60;1.00
827;DHT22;395;48.132;11.608;2023-03-12T06:44:50;5.70;1.00
827;DHT22;395;48.132;11.608;2023-03-12T06:47:17;5.80;1.00
827;DHT22;395;48.132;11.608;2023-03-12T06:49:42;5.80;1.00
827;DHT22;395;48.132;11.608;2023-03-12T06:52:09;5.80;1.00
827;DHT22;395;48.132;11.608;2023-03-12T06:54:34;5.80;1.00
827;DHT22;395;48.132;11.608;2023-03-12T06:57:00;5.90;1.00
827;DHT22;395;48.132;11.608;2023-03-12T06:59:26;5.90;1.00
827;DHT22;395;48.132;11.608;2023-03-12T07:01:52;5.90;1.00
827;DHT22;395;48.132;11.608;2023-03-12T07:04:18;6.00;1.00
827;DHT22;395;48.132;11.608;2023-03-12T07:06:44;6.00;1.00
827;DHT22;395;48.132;11.608;2023-03-12T07:09:15;6.00;1.00
827;DHT22;395;48.132;11.608;2023-03-12T07:11:41;6.10;1.00
827;DHT22;395;48.132;11.608;2023-03-12T07:14:07;6.10;1.00
827;DHT22;395;48.132;11.608;2023-03-12T07:16:32;6.10;1.00
827;DHT22;395;48.132;11.608;2023-03-12T07:18:59;6.10;1.00
827;DHT22;395;48.132;11.608;2023-03-12T07:21:25;6.10;1.00
827;DHT22;395;48.132;11.608;2023-03-12T07:23:51;6.10;1.00
827;DHT22;395;48.132;11.608;2023-03-12T07:26:18;6.20;1.00
827;DHT22;395;48.132;11.608;2023-03-12T07:28:44;6.20;1.00
827;DHT22;395;48.132;11.608;2023-03-12T07:31:09;6.20;1.00
827;DHT22;395;48.132;11.608;2023-03-12T07:33:35;6.20;1.00
827;DHT22;395;48.132;11.608;2023-03-12T07:36:01;6.20;1.00
827;DHT22;395;48.132;11.608;2023-03-12T07:38:27;6.30;1.00
827;DHT22;395;48.132;11.608;2023-03-12T07:40:54;6.40;1.00
827;DHT22;395;48.132;11.608;2023-03-12T07:43:20;6.30;1.00
827;DHT22;395;48.132;11.608;2023-03-12T07:45:46;6.40;1.00
827;DHT22;395;48.132;11.608;2023-03-12T07:48:12;6.40;1.00
827;DHT22;395;48.132;11.608;2023-03-12T07:50:37;6.50;1.00
827;DHT22;395;48.132;11.608;2023-03-12T07:53:04;6.50;1.00
827;DHT22;395;48.132;11.608;2023-03-12T07:55:31;6.60;1.00
827;DHT22;395;48.132;11.608;2023-03-12T07:57:57;6.60;1.00
827;DHT22;395;48.132;11.608;2023-03-12T08:00:24;6.60;1.00
827;DHT22;395;48.132;11.608;2023-03-12T08:02:50;6.70;1.00
827;DHT22;395;48.132;11.608;2023-03-12T08:05:16;6.70;1.00
827;DHT22;395;48.132;11.608;2023-03-12T08:07:42;6.60;1.00
827;DHT22;395;48.132;11.608;2023-03-12T08:10:09;6.70;1.00
827;DHT22;395;48.132;11.608;2023-03-12T08:12:35;6.70;1.00
827;DHT22;395;48.132;11.608;2023-03-12T08:15:03;6.60;1.00
827;DHT22;395;48.132;11.608;2023-03-12T08:17:28;6.70;1.00
827;DHT22;395;48.132;11.608;2023-03-12T08:19:54;6.70;1.00
827;DHT22;395;48.132;11.608;2023-03-12T08:22:20;6.70;1.00
827;DHT22;395;48.132;11.608;2023-03-12T08:24:45;6.70;1.00
827;DHT22;395;48.132;11.608;2023-03-12T08:27:11;6.80;1.00
827;DHT22;395;48.132;11.608;2023-03-12T08:29:38;6.80;1.00
827;DHT22;395;48.132;11.608;2023-03-12T08:32:04;6.90;1.00
827;DHT22;395;48.132;11.608;2023-03-12T08:34:29;6.90;1.00
827;DHT22;395;48.132;11.608;2023-03-12T08:36:55;6.80;1.00
827;DHT22;395;48.132;11.608;2023-03-12T08:39:21;6.80;1.00
827;DHT22;395;48.132;11.608;2023-03-12T08:41:46;6.90;1.00
827;DHT22;395;48.132;11.608;2023-03-12T08:44:12;6.90;1.00
827;DHT22;395;48.132;11.608;2023-03-12T08:46:37;6.90;1.00
827;DHT22;395;48.132;11.608;2023-03-12T08:49:03;6.80;1.00
827;DHT22;395;48.132;11.608;2023-03-12T08:51:29;6.80;1.00
827;DHT22;395;48.132;11.608;2023-03-12T08:53:54;6.90;1.00
827;DHT22;395;48.132;11.608;2023-03-12T08:56:20;6.90;1.00
827;DHT22;395;48.132;11.608;2023-03-12T08:58:46;7.00;1.00
827;DHT22;395;48.132;11.608;2023-03-12T09:01:12;7.00;1.00
827;DHT22;395;48.132;11.608;2023-03-12T09:03:38;7.00;1.00
827;DHT22;395;48.132;11.608;2023-03-12T09:06:14;6.90;1.00
827;DHT22;395;48.132;11.608;2023-03-12T09:08:42;6.90;1.00
827;DHT22;395;48.132;11.608;2023-03-12T09:11:09;7.00;1.00
827;DHT22;395;48.132;11.608;2023-03-12T09:13:35;7.10;1.00
827;DHT22;395;48.132;11.608;2023-03-12T09:16:02;7.10;1.00
827;DHT22;395;48.132;11.608;2023-03-12T09:18:29;7.10;1.00
827;DHT22;395;48.132;11.608;2023-03-12T09:20:56;7.20;1.00
827;DHT22;395;48.132;11.608;2023-03-12T09:23:22;7.20;1.00
827;DHT22;395;48.132;11.608;2023-03-12T09:25:48;7.20;1.00
827;DHT22;395;48.132;11.608;2023-03-12T09:28:14;7.30;1.00
827;DHT22;395;48.132;11.608;2023-03-12T09:30:40;7.30;1.00
827;DHT22;395;48.132;11.608;2023-03-12T09:33:06;7.40;1.00
827;DHT22;395;48.132;11.608;2023-03-12T09:35:32;7.40;1.00
827;DHT22;395;48.132;11.608;2023-03-12T09:37:58;7.50;1.00
827;DHT22;395;48.132;11.608;2023-03-12T09:40:26;7.50;1.00
827;DHT22;395;48.132;11.608;2023-03-12T09:43:16;7.50;1.00
827;DHT22;395;48.132;11.608;2023-03-12T09:45:45;7.60;1.00
827;DHT22;395;48.132;11.608;2023-03-12T09:48:38;7.60;1.00
827;DHT22;395;48.132;11.608;2023-03-12T09:51:42;7.50;1.00
827;DHT22;395;48.132;11.608;2023-03-12T09:54:38;7.50;1.00
827;DHT22;395;48.132;11.608;2023-03-12T09:57:19;7.50;1.00
827;DHT22;395;48.132;11.608;2023-03-12T09:59:46;7.60;1.00
827;DHT22;395;48.132;11.608;2023-03-12T10:05:02;7.50;1.00
827;DHT22;395;48.132;11.608;2023-03-12T10:07:41;7.40;1.00
827;DHT22;395;48.132;11.608;2023-03-12T10:18:49;7.50;1.00
827;DHT22;395;48.132;11.608;2023-03-12T10:21:28;7.50;1.00
827;DHT22;395;48.132;11.608;2023-03-12T10:27:21;7.50;1.00
827;DHT22;395;48.132;11.608;2023-03-12T10:29:49;7.60;1.00
827;DHT22;395;48.132;11.608;2023-03-12T10:32:38;7.50;1.00
827;DHT22;395;48.132;11.608;2023-03-12T10:35:17;7.50;1.00
827;DHT22;395;48.132;11.608;2023-03-12T10:37:46;7.50;1.00
827;DHT22;395;48.132;11.608;2023-03-12T10:40:26;7.60;1.60
827;DHT22;395;48.132;11.608;2023-03-12T10:42:52;7.60;1.60
827;DHT22;395;48.132;11.608;2023-03-12T10:45:40;7.60;1.90
827;DHT22;395;48.132;11.608;2023-03-12T10:48:10;7.50;1.60
827;DHT22;395;48.132;11.608;2023-03-12T10:50:42;7.60;1.70
827;DHT22;395;48.132;11.608;2023-03-12T10:53:34;7.50;1.20
827;DHT22;395;48.132;11.608;2023-03-12T10:58:49;7.50;1.60
827;DHT22;395;48.132;11.608;2023-03-12T11:01:26;7.50;1.40
827;DHT22;395;48.132;11.608;2023-03-12T11:04:06;7.50;1.90
827;DHT22;395;48.132;11.608;2023-03-12T11:06:32;7.50;2.10
827;DHT22;395;48.132;11.608;2023-03-12T11:09:18;7.50;2.60
827;DHT22;395;48.132;11.608;2023-03-12T11:11:48;7.50;2.60
827;DHT22;395;48.132;11.608;2023-03-12T11:14:41;7.50;2.60
827;DHT22;395;48.132;11.608;2023-03-12T11:17:21;7.50;2.60
827;DHT22;395;48.132;11.608;2023-03-12T11:19:47;7.50;2.60
827;DHT22;395;48.132;11.608;2023-03-12T11:22:13;7.60;2.90
827;DHT22;395;48.132;11.608;2023-03-12T11:25:01;7.60;3.20
827;DHT22;395;48.132;11.608;2023-03-12T11:27:43;7.50;2.60
827;DHT22;395;48.132;11.608;2023-03-12T11:30:15;7.60;3.30
827;DHT22;395;48.132;11.608;2023-03-12T11:32:44;7.60;3.40
827;DHT22;395;48.132;11.608;2023-03-12T11:35:13;7.70;3.70
827;DHT22;395;48.132;11.608;2023-03-12T11:46:43;7.80;3.50
827;DHT22;395;48.132;11.608;2023-03-12T11:52:39;7.80;3.60
827;DHT22;395;48.132;11.608;2023-03-12T11:58:19;7.90;3.80
827;DHT22;395;48.132;11.608;2023-03-12T12:00:56;7.90;4.20
827;DHT22;395;48.132;11.608;2023-03-12T12:03:42;8.00;5.00
827;DHT22;395;48.132;11.608;2023-03-12T12:11:57;8.00;4.80
827;DHT22;395;48.132;11.608;2023-03-12T12:20:36;8.10;5.30
827;DHT22;395;48.132;11.608;2023-03-12T12:24:08;8.20;5.20
827;DHT22;395;48.132;11.608;2023-03-12T12:26:13;8.10;5.80
827;DHT22;395;48.132;11.608;2023-03-12T12:37:14;8.20;6.50
827;DHT22;395;48.132;11.608;2023-03-12T12:39:48;8.20;6.80
827;DHT22;395;48.132;11.608;2023-03-12T12:42:20;8.20;6.20
827;DHT22;395;48.132;11.608;2023-03-12T12:44:50;8.20;6.40
827;DHT22;395;48.132;11.608;2023-03-12T12:48:11;8.20;6.50
827;DHT22;395;48.132;11.608;2023-03-12T12:50:19;8.30;8.40
827;DHT22;395;48.132;11.608;2023-03-12T12:53:34;8.30;7.70
827;DHT22;395;48.132;11.608;2023-03-12T12:55:48;8.30;7.10
827;DHT22;395;48.132;11.608;2023-03-12T13:00:55;8.30;9.10
827;DHT22;395;48.132;11.608;2023-03-12T13:03:25;8.30;10.60
827;DHT22;395;48.132;11.608;2023-03-12T13:13:48;8.30;10.60
827;DHT22;395;48.132;11.608;2023-03-12T13:16:34;8.30;11.20
827;DHT22;395;48.132;11.608;2023-03-12T13:19:23;8.30;11.50
827;DHT22;395;48.132;11.608;2023-03-12T13:27:18;8.40;12.20
827;DHT22;395;48.132;11.608;2023-03-12T13:29:45;8.40;16.10
827;DHT22;395;48.132;11.608;2023-03-12T13:33:05;8.40;15.70
827;DHT22;395;48.132;11.608;2023-03-12T13:35:35;8.50;14.20
827;DHT22;395;48.132;11.608;2023-03-12T13:38:04;8.50;12.90
827;DHT22;395;48.132;11.608;2023-03-12T13:40:38;8.40;18.20
827;DHT22;395;48.132;11.608;2023-03-12T13:45:30;8.50;18.60
827;DHT22;395;48.132;11.608;2023-03-12T13:48:01;8.60;18.80
827;DHT22;395;48.132;11.608;2023-03-12T13:50:28;8.70;18.00
827;DHT22;395;48.132;11.608;2023-03-12T13:53:06;8.80;18.20
827;DHT22;395;48.132;11.608;2023-03-12T13:55:34;8.90;17.70
827;DHT22;395;48.132;11.608;2023-03-12T13:58:34;8.80;18.40
827;DHT22;395;48.132;11.608;2023-03-12T14:01:00;8.90;17.60
827;DHT22;395;48.132;11.608;2023-03-12T14:03:46;9.00;16.90
827;DHT22;395;48.132;11.608;2023-03-12T14:06:18;9.00;16.80
827;DHT22;395;48.132;11.608;2023-03-12T14:17:33;8.90;20.40
827;DHT22;395;48.132;11.608;2023-03-12T14:20:04;9.10;20.20
827;DHT22;395;48.132;11.608;2023-03-12T14:22:36;9.10;20.30
827;DHT22;395;48.132;11.608;2023-03-12T14:25:16;9.10;20.60
827;DHT22;395;48.132;11.608;2023-03-12T14:27:45;9.20;17.80
827;DHT22;395;48.132;11.608;2023-03-12T14:30:18;9.20;18.00
827;DHT22;395;48.132;11.608;2023-03-12T14:32:45;9.20;18.10
827;DHT22;395;48.132;11.608;2023-03-12T14:35:16;9.30;19.10
827;DHT22;395;48.132;11.608;2023-03-12T14:38:05;9.30;20.80
827;DHT22;395;48.132;11.608;2023-03-12T14:43:01;9.60;18.00
827;DHT22;395;48.132;11.608;2023-03-12T14:45:27;9.60;17.60
827;DHT22;395;48.132;11.608;2023-03-12T14:47:55;9.80;16.30
827;DHT22;395;48.132;11.608;2023-03-12T14:50:37;9.70;15.00
827;DHT22;395;48.132;11.608;2023-03-12T14:53:20;9.60;15.80
827;DHT22;395;48.132;11.608;2023-03-12T14:58:45;9.90;12.90
827;DHT22;395;48.132;11.608;2023-03-12T15:01:31;9.90;12.40
827;DHT22;395;48.132;11.608;2023-03-12T15:04:03;9.90;12.20
827;DHT22;395;48.132;11.608;2023-03-12T15:06:39;9.80;12.10
827;DHT22;395;48.132;11.608;2023-03-12T15:09:17;9.80;12.80
827;DHT22;395;48.132;11.608;2023-03-12T15:11:50;9.80;12.30
827;DHT22;395;48.132;11.608;2023-03-12T15:14:16;9.80;13.40
827;DHT22;395;48.132;11.608;2023-03-12T15:16:42;9.80;13.70
827;DHT22;395;48.132;11.608;2023-03-12T15:19:13;9.80;12.90
827;DHT22;395;48.132;11.608;2023-03-12T15:21:40;9.80;13.30
827;DHT22;395;48.132;11.608;2023-03-12T15:24:08;9.80;13.10
827;DHT22;395;48.132;11.608;2023-03-12T15:26:37;9.80;13.20
827;DHT22;395;48.132;11.608;2023-03-12T15:29:25;9.70;12.80
827;DHT22;395;48.132;11.608;2023-03-12T15:31:53;9.70;13.20
827;DHT22;395;48.132;11.608;2023-03-12T15:34:37;9.70;13.40
827;DHT22;395;48.132;11.608;2023-03-12T15:37:48;9.70;13.20
827;DHT22;395;48.132;11.608;2023-03-12T15:40:26;9.70;13.60
827;DHT22;395;48.132;11.608;2023-03-12T15:42:53;9.70;13.60
827;DHT22;395;48.132;11.608;2023-03-12T15:45:34;9.70;13.70
827;DHT22;395;48.132;11.608;2023-03-12T15:48:01;9.70;13.40
827;DHT22;395;48.132;11.608;2023-03-12T15:50:36;9.70;13.20
827;DHT22;395;48.132;11.608;2023-03-12T15:55:36;9.60;14.00
827;DHT22;395;48.132;11.608;2023-03-12T15:58:02;9.70;13.50
827;DHT22;395;48.132;11.608;2023-03-12T16:00:47;9.80;13.10
827;DHT22;395;48.132;11.608;2023-03-12T16:03:18;9.90;12.30
827;DHT22;395;48.132;11.608;2023-03-12T16:05:44;9.80;13.20
827;DHT22;395;48.132;11.608;2023-03-12T16:08:20;9.80;12.70
827;DHT22;395;48.132;11.608;2023-03-12T16:10:48;9.80;12.00
827;DHT22;395;48.132;11.608;2023-03-12T16:13:16;9.70;12.30
827;DHT22;395;48.132;11.608;2023-03-12T16:15:42;9.70;12.90
827;DHT22;395;48.132;11.608;2023-03-12T16:18:16;9.80;12.90
827;DHT22;395;48.132;11.608;2023-03-12T16:20:42;9.70;12.90
827;DHT22;395;48.132;11.608;2023-03-12T16:23:08;9.80;13.10
827;DHT22;395;48.132;11.608;2023-03-12T16:25:35;9.70;13.60
827;DHT22;395;48.132;11.608;2023-03-12T16:28:02;9.70;13.70
827;DHT22;395;48.132;11.608;2023-03-12T16:30:33;9.70;13.30
827;DHT22;395;48.132;11.608;2023-03-12T16:33:00;9.70;13.20
827;DHT22;395;48.132;11.608;2023-03-12T16:35:27;9.70;13.20
827;DHT22;395;48.132;11.608;2023-03-12T16:37:55;9.60;14.60
827;DHT22;395;48.132;11.608;2023-03-12T16:40:21;9.70;13.80
827;DHT22;395;48.132;11.608;2023-03-12T16:42:50;9.70;12.50
827;DHT22;395;48.132;11.608;2023-03-12T16:45:19;9.60;12.50
827;DHT22;395;48.132;11.608;2023-03-12T16:47:47;9.70;12.10
827;DHT22;395;48.132;11.608;2023-03-12T16:50:19;9.80;11.50
827;DHT22;395;48.132;11.608;2023-03-12T16:52:45;9.80;10.90
827;DHT22;395;48.132;11.608;2023-03-12T16:55:18;9.80;10.50
827;DHT22;395;48.132;11.608;2023-03-12T16:57:48;9.60;11.20
827;DHT22;395;48.132;11.608;2023-03-12T17:00:26;9.70;10.90
827;DHT22;395;48.132;11.608;2023-03-12T17:02:53;9.60;10.60
827;DHT22;395;48.132;11.608;2023-03-12T17:05:26;9.70;10.50
827;DHT22;395;48.132;11.608;2023-03-12T17:07:53;9.70;10.50
827;DHT22;395;48.132;11.608;2023-03-12T17:10:19;9.70;10.20
827;DHT22;395;48.132;11.608;2023-03-12T17:12:45;9.60;10.10
827;DHT22;395;48.132;11.608;2023-03-12T17:15:23;9.60;9.90
827;DHT22;395;48.132;11.608;2023-03-12T17:17:51;9.60;10.00
827;DHT22;395;48.132;11.608;2023-03-12T17:20:18;9.60;10.30
827;DHT22;395;48.132;11.608;2023-03-12T17:22:44;9.60;10.50
827;DHT22;395;48.132;11.608;2023-03-12T17:25:23;9.60;10.00
827;DHT22;395;48.132;11.608;2023-03-12T17:27:49;9.60;9.90
827;DHT22;395;48.132;11.608;2023-03-12T17:30:16;9.60;10.00
827;DHT22;395;48.132;11.608;2023-03-12T17:32:41;9.50;10.10
827;DHT22;395;48.132;11.608;2023-03-12T17:35:07;9.50;10.30
827;DHT22;395;48.132;11.608;2023-03-12T17:37:33;9.50;10.50
827;DHT22;395;48.132;11.608;2023-03-12T17:39:59;9.50;10.20
827;DHT22;395;48.132;11.608;2023-03-12T17:42:33;9.50;9.90
827;DHT22;395;48.132;11.608;2023-03-12T17:44:59;9.40;9.70
827;DHT22;395;48.132;11.608;2023-03-12T17:47:26;9.40;9.90
827;DHT22;395;48.132;11.608;2023-03-12T17:49:51;9.40;9.80
827;DHT22;395;48.132;11.608;2023-03-12T17:52:17;9.40;9.70
827;DHT22;395;48.132;11.608;2023-03-12T17:54:42;9.40;9.60
827;DHT22;395;48.132;11.608;2023-03-12T17:57:09;9.30;9.50
827;DHT22;395;48.132;11.608;2023-03-12T17:59:35;9.40;9.70
827;DHT22;395;48.132;11.608;2023-03-12T18:02:00;9.30;9.50
827;DHT22;395;48.132;11.608;2023-03-12T18:04:26;9.30;9.50
827;DHT22;395;48.132;11.608;2023-03-12T18:06:52;9.30;9.40
827;DHT22;395;48.132;11.608;2023-03-12T18:09:18;9.30;9.70
827;DHT22;395;48.132;11.608;2023-03-12T18:11:44;9.30;9.60
827;DHT22;395;48.132;11.608;2023-03-12T18:14:10;9.30;9.10
827;DHT22;395;48.132;11.608;2023-03-12T18:16:35;9.30;8.80
827;DHT22;395;48.132;11.608;2023-03-12T18:19:01;9.30;8.50
827;DHT22;395;48.132;11.608;2023-03-12T18:21:27;9.30;8.30
827;DHT22;395;48.132;11.608;2023-03-12T18:23:52;9.40;8.20
827;DHT22;395;48.132;11.608;2023-03-12T18:26:18;9.40;8.00
827;DHT22;395;48.132;11.608;2023-03-12T18:28:44;9.40;8.00
827;DHT22;395;48.132;11.608;2023-03-12T18:31:09;9.30;7.90
827;DHT22;395;48.132;11.608;2023-03-12T18:33:35;9.30;7.90
827;DHT22;395;48.132;11.608;2023-03-12T18:36:02;9.30;7.90